Arlington, Virginia
Current Conditions -  °F | °C
As of 8:52 AM on Sunday 25 Jan 2015 (Local Time) from KDCA Reporting Station
Broken Clouds Broken Clouds  
Wind Chill:   Ceiling: 4500
Heat Index:   Visibility: 10mi
Dew Point: -3°   Wind: 7mph
Humidity: 55%   Direction: 260°W
Pressure: 29.84"   Gusts: NA
Location:  38.89°N, 77.09°W
Report Text: KDCA 251352Z 26006KT 10SM BKN045 BKN075 06/M03 A2984 RMK AO2 SLP106 T00561028 $
Loading
Personal Weather Stations






























Interactive Weather Map New forecast layout! Learn more

10-Day Weather Forecast

Advertisements
Track Severe Weather on mobile